Kramer, Nebraska
Current Conditions -  °F | °C
As of 11:54 PM on Wednesday 22 Oct 2014 (Local Time) from KLNK Reporting Station
Broken Clouds Broken Clouds  
Wind Chill: 62°   Ceiling: 5000
Heat Index: 62°   Visibility: 9mi
Dew Point: 58°   Wind: 14mph
Humidity: 86%   Direction: 190°S
Pressure: 30.03"   Gusts: NA
Location:  40.5918°N, 96.9749°W
Report Text: KLNK 230454Z AUTO 19012KT 9SM BKN050 17/14 A3003 RMK AO2 SLP163 T01670144
Loading
Personal Weather Stations






























Interactive Weather Map
Tropical Storm Tracking
New forecast layout! Learn more

10-Day Weather Forecast

Advertisements
Track Severe Weather on mobile